Schultzville, Pennsylvania
Current Conditions -  °F | °C
As of 10:54 PM on Thursday 18 Dec 2014 (Local Time) from KPTW Reporting Station
Overcast Overcast  
Wind Chill: 30°   Ceiling: 3500
Heat Index: 35°   Visibility: 10mi
Dew Point: 26°   Wind: 6mph
Humidity: 70%   Direction: 290°WNW
Pressure: 30.04"   Gusts: NA
Location:  40.3877°N, 75.5817°W
Report Text: KPTW 190354Z AUTO 29005KT 10SM OVC035 02/M03 A3004 RMK AO2 SLP173 T00171033
Loading
Personal Weather Stations






























Interactive Weather Map New forecast layout! Learn more

10-Day Weather Forecast

Advertisements
Track Severe Weather on mobile